DAL511 KDTW-KDFW
Flight info
| Callsign | DAL511 |
|---|---|
| Flight time | 2h 13m |
| Altitude | 38000 |
| Route | SNDRS3 BGHRT STL RZC FSM RRNET SEEVR4 |
| Aircraft | B77W/H-SDE1E2E3FGHIJ2J3J4J5M1RWXY/LB1D1 |
Departure
| Time | 2026-05-04 02:28 |
|---|---|
| Airport | Detroit Metropolitan Wayne County Airport (KDTW) |
Arrival
| Time | 2026-05-04 04:41 |
|---|---|
| Airport | Dallas Fort Worth International Airport (KDFW) |
| Time | Latitude | Longitude | Altitude | Speed | Heading |
|---|---|---|---|---|---|
| 2026-05-04 02:09 | 42.21212 | -83.35603 | 654 ft | 0 kts | 120° |
| 2026-05-04 02:16 | 42.21217 | -83.35615 | 654 ft | 3 kts | 120° |
| 2026-05-04 02:16 | 42.21228 | -83.35639 | 654 ft | 3 kts | 120° |
| 2026-05-04 02:17 | 42.21238 | -83.35663 | 654 ft | 3 kts | 120° |
| 2026-05-04 02:17 | 42.21248 | -83.35688 | 659 ft | 3 kts | 120° |
| 2026-05-04 02:17 | 42.21258 | -83.35711 | 654 ft | 3 kts | 86° |
| 2026-05-04 02:17 | 42.21261 | -83.35711 | 654 ft | 2 kts | 57° |
| 2026-05-04 02:18 | 42.21275 | -83.35687 | 654 ft | 3 kts | 49° |
| 2026-05-04 02:18 | 42.21280 | -83.35680 | 654 ft | 0 kts | 40° |
| 2026-05-04 02:20 | 42.21300 | -83.35659 | 657 ft | 11 kts | 37° |
| 2026-05-04 02:20 | 42.21367 | -83.35605 | 659 ft | 12 kts | 30° |
| 2026-05-04 02:20 | 42.21439 | -83.35552 | 654 ft | 12 kts | 29° |
| 2026-05-04 02:21 | 42.21513 | -83.35498 | 656 ft | 12 kts | 28° |
| 2026-05-04 02:21 | 42.21543 | -83.35432 | 657 ft | 9 kts | 79° |
| 2026-05-04 02:21 | 42.21550 | -83.35346 | 657 ft | 12 kts | 86° |
| 2026-05-04 02:21 | 42.21552 | -83.35226 | 654 ft | 13 kts | 88° |
| 2026-05-04 02:22 | 42.21560 | -83.35101 | 655 ft | 14 kts | 67° |
| 2026-05-04 02:22 | 42.21593 | -83.35041 | 654 ft | 0 kts | 48° |
| 2026-05-04 02:23 | 42.21600 | -83.35031 | 656 ft | 8 kts | 48° |
| 2026-05-04 02:23 | 42.21669 | -83.34938 | 657 ft | 21 kts | 45° |
| 2026-05-04 02:23 | 42.21777 | -83.34803 | 656 ft | 21 kts | 43° |
| 2026-05-04 02:24 | 42.21833 | -83.34640 | 656 ft | 20 kts | 84° |
| 2026-05-04 02:24 | 42.21893 | -83.34480 | 658 ft | 20 kts | 35° |
| 2026-05-04 02:24 | 42.22014 | -83.34386 | 657 ft | 20 kts | 30° |
| 2026-05-04 02:24 | 42.22141 | -83.34290 | 658 ft | 22 kts | 30° |
| 2026-05-04 02:25 | 42.22276 | -83.34192 | 654 ft | 22 kts | 27° |
| 2026-05-04 02:25 | 42.22409 | -83.34094 | 654 ft | 22 kts | 28° |
| 2026-05-04 02:25 | 42.22544 | -83.33995 | 657 ft | 22 kts | 28° |
| 2026-05-04 02:25 | 42.22678 | -83.33898 | 658 ft | 22 kts | 29° |
| 2026-05-04 02:26 | 42.22757 | -83.33840 | 653 ft | 8 kts | 28° |
| 2026-05-04 02:26 | 42.22828 | -83.33786 | 653 ft | 12 kts | 38° |
| 2026-05-04 02:26 | 42.22840 | -83.33764 | 652 ft | 0 kts | 59° |
| 2026-05-04 02:27 | 42.22844 | -83.33754 | 656 ft | 7 kts | 66° |
| 2026-05-04 02:27 | 42.22814 | -83.33671 | 650 ft | 12 kts | 154° |
| 2026-05-04 02:27 | 42.22733 | -83.33690 | 656 ft | 12 kts | 206° |
| 2026-05-04 02:27 | 42.22605 | -83.33782 | 656 ft | 36 kts | 209° |
| 2026-05-04 02:28 | 42.22105 | -83.34144 | 656 ft | 139 kts | 207° |
| 2026-05-04 02:28 | 42.20989 | -83.34932 | 1352 ft | 193 kts | 207° |
| 2026-05-04 02:28 | 42.19736 | -83.35808 | 2855 ft | 215 kts | 207° |
| 2026-05-04 02:28 | 42.18326 | -83.36752 | 4407 ft | 230 kts | 202° |
| 2026-05-04 02:29 | 42.16785 | -83.37404 | 5609 ft | 238 kts | 198° |
| 2026-05-04 02:29 | 42.15134 | -83.37982 | 6465 ft | 251 kts | 200° |
| 2026-05-04 02:29 | 42.13411 | -83.38588 | 6949 ft | 259 kts | 200° |
| 2026-05-04 02:29 | 42.11631 | -83.39231 | 7038 ft | 268 kts | 200° |
| 2026-05-04 02:30 | 42.09822 | -83.39890 | 7624 ft | 271 kts | 201° |
| 2026-05-04 02:30 | 42.07995 | -83.40568 | 8737 ft | 272 kts | 203° |
| 2026-05-04 02:30 | 42.06332 | -83.41716 | 9576 ft | 272 kts | 222° |
| 2026-05-04 02:30 | 42.04824 | -83.43299 | 10508 ft | 281 kts | 222° |
| 2026-05-04 02:31 | 42.03198 | -83.44949 | 10980 ft | 308 kts | 220° |
| 2026-05-04 02:31 | 42.01421 | -83.46702 | 11846 ft | 315 kts | 220° |
| 2026-05-04 02:31 | 41.99673 | -83.48405 | 13317 ft | 306 kts | 220° |
| 2026-05-04 02:31 | 41.97981 | -83.50075 | 14701 ft | 297 kts | 221° |
| 2026-05-04 02:32 | 41.96331 | -83.51769 | 15792 ft | 299 kts | 222° |
| 2026-05-04 02:32 | 41.94668 | -83.53496 | 16703 ft | 305 kts | 223° |
| 2026-05-04 02:32 | 41.92974 | -83.55258 | 17582 ft | 311 kts | 223° |
| 2026-05-04 02:32 | 41.91250 | -83.57047 | 18486 ft | 316 kts | 223° |
| 2026-05-04 02:33 | 41.89516 | -83.58840 | 19368 ft | 320 kts | 223° |
| 2026-05-04 02:33 | 41.87723 | -83.60690 | 20308 ft | 323 kts | 223° |
| 2026-05-04 02:33 | 41.85952 | -83.62514 | 21187 ft | 326 kts | 223° |
| 2026-05-04 02:33 | 41.84124 | -83.64394 | 22058 ft | 330 kts | 223° |
| 2026-05-04 02:34 | 41.82912 | -83.65641 | 22620 ft | 332 kts | 223° |
| 2026-05-04 02:34 | 41.80457 | -83.68162 | 23733 ft | 337 kts | 223° |
| 2026-05-04 02:34 | 41.78581 | -83.70088 | 24520 ft | 341 kts | 223° |
| 2026-05-04 02:34 | 41.76691 | -83.72026 | 25298 ft | 345 kts | 223° |
| 2026-05-04 02:35 | 41.75422 | -83.73328 | 25786 ft | 347 kts | 223° |
| 2026-05-04 02:35 | 41.72833 | -83.75980 | 26732 ft | 353 kts | 223° |
| 2026-05-04 02:35 | 41.71531 | -83.77312 | 27209 ft | 356 kts | 223° |
| 2026-05-04 02:35 | 41.69549 | -83.79312 | 27888 ft | 361 kts | 221° |
| 2026-05-04 02:36 | 41.67439 | -83.81157 | 28547 ft | 368 kts | 217° |
| 2026-05-04 02:36 | 41.65206 | -83.82937 | 29217 ft | 372 kts | 216° |
| 2026-05-04 02:36 | 41.62944 | -83.84697 | 29827 ft | 377 kts | 216° |
| 2026-05-04 02:36 | 41.60670 | -83.86470 | 30442 ft | 380 kts | 216° |
| 2026-05-04 02:37 | 41.58393 | -83.88259 | 31008 ft | 384 kts | 217° |
| 2026-05-04 02:37 | 41.56070 | -83.90100 | 31517 ft | 389 kts | 217° |
| 2026-05-04 02:37 | 41.53737 | -83.91959 | 31990 ft | 393 kts | 217° |
| 2026-05-04 02:37 | 41.51377 | -83.93845 | 32484 ft | 397 kts | 217° |
| 2026-05-04 02:38 | 41.48999 | -83.95745 | 32953 ft | 401 kts | 217° |
| 2026-05-04 02:38 | 41.46595 | -83.97665 | 33416 ft | 404 kts | 217° |
| 2026-05-04 02:38 | 41.44167 | -83.99603 | 33835 ft | 408 kts | 218° |
| 2026-05-04 02:38 | 41.41719 | -84.01555 | 34264 ft | 411 kts | 218° |
| 2026-05-04 02:39 | 41.39259 | -84.03515 | 34632 ft | 415 kts | 218° |
| 2026-05-04 02:39 | 41.36803 | -84.05472 | 35010 ft | 418 kts | 217° |
| 2026-05-04 02:39 | 41.34265 | -84.07491 | 35415 ft | 420 kts | 217° |
| 2026-05-04 02:39 | 41.31771 | -84.09472 | 35817 ft | 422 kts | 217° |
| 2026-05-04 02:40 | 41.29237 | -84.11484 | 36181 ft | 425 kts | 217° |
| 2026-05-04 02:40 | 41.26745 | -84.13576 | 36445 ft | 421 kts | 225° |
| 2026-05-04 02:40 | 41.24730 | -84.16340 | 36655 ft | 414 kts | 240° |
| 2026-05-04 02:40 | 41.23409 | -84.19661 | 36959 ft | 405 kts | 253° |
| 2026-05-04 02:41 | 41.22396 | -84.23167 | 37365 ft | 405 kts | 253° |
| 2026-05-04 02:41 | 41.21398 | -84.26658 | 37750 ft | 405 kts | 253° |
| 2026-05-04 02:41 | 41.20389 | -84.30150 | 37959 ft | 409 kts | 252° |
| 2026-05-04 02:41 | 41.19346 | -84.33714 | 37951 ft | 416 kts | 252° |
| 2026-05-04 02:42 | 41.17186 | -84.40967 | 37946 ft | 429 kts | 252° |
| 2026-05-04 02:42 | 41.14944 | -84.48410 | 37943 ft | 439 kts | 252° |
| 2026-05-04 02:43 | 41.12653 | -84.55991 | 37938 ft | 447 kts | 252° |
| 2026-05-04 02:43 | 41.10327 | -84.63700 | 37939 ft | 450 kts | 253° |
| 2026-05-04 02:44 | 41.08729 | -84.71658 | 37934 ft | 446 kts | 261° |
| 2026-05-04 02:44 | 41.07498 | -84.79733 | 37934 ft | 446 kts | 261° |
| 2026-05-04 02:45 | 41.06212 | -84.87762 | 37928 ft | 445 kts | 260° |
| 2026-05-04 02:45 | 41.04872 | -84.95702 | 37932 ft | 444 kts | 260° |
| 2026-05-04 02:46 | 41.03507 | -85.03663 | 37925 ft | 443 kts | 260° |
| 2026-05-04 02:46 | 41.02140 | -85.11612 | 37924 ft | 441 kts | 260° |
| 2026-05-04 02:47 | 41.00775 | -85.19527 | 37926 ft | 441 kts | 260° |
| 2026-05-04 02:47 | 40.99407 | -85.27436 | 37928 ft | 440 kts | 260° |
| 2026-05-04 02:48 | 40.98030 | -85.35341 | 37929 ft | 440 kts | 260° |
| 2026-05-04 02:48 | 40.96650 | -85.43227 | 37921 ft | 440 kts | 260° |
| 2026-05-04 02:49 | 40.95269 | -85.51103 | 37915 ft | 440 kts | 259° |
| 2026-05-04 02:49 | 40.93877 | -85.59008 | 37917 ft | 440 kts | 259° |
| 2026-05-04 02:50 | 40.92491 | -85.66841 | 37916 ft | 440 kts | 259° |
| 2026-05-04 02:50 | 40.91089 | -85.74737 | 37914 ft | 440 kts | 259° |
| 2026-05-04 02:51 | 40.89913 | -85.81340 | 37907 ft | 441 kts | 259° |
| 2026-05-04 02:51 | 40.88302 | -85.90469 | 37901 ft | 440 kts | 261° |
| 2026-05-04 02:52 | 40.87356 | -85.98436 | 37897 ft | 438 kts | 265° |
| 2026-05-04 02:52 | 40.86587 | -86.06408 | 37896 ft | 437 kts | 265° |
| 2026-05-04 02:53 | 40.85782 | -86.14383 | 37897 ft | 437 kts | 264° |
| 2026-05-04 02:53 | 40.84935 | -86.22330 | 37897 ft | 437 kts | 264° |
| 2026-05-04 02:54 | 40.84067 | -86.30275 | 37897 ft | 437 kts | 264° |
| 2026-05-04 02:54 | 40.83192 | -86.38211 | 37903 ft | 437 kts | 264° |
| 2026-05-04 02:55 | 40.81871 | -86.50124 | 37910 ft | 437 kts | 264° |
| 2026-05-04 02:56 | 40.80987 | -86.58030 | 37908 ft | 438 kts | 264° |
| 2026-05-04 02:56 | 40.80095 | -86.65968 | 37908 ft | 438 kts | 264° |
| 2026-05-04 02:57 | 40.79195 | -86.73918 | 37903 ft | 438 kts | 264° |
| 2026-05-04 02:57 | 40.78285 | -86.81903 | 37895 ft | 439 kts | 264° |
| 2026-05-04 02:58 | 40.77374 | -86.89858 | 37897 ft | 439 kts | 264° |
| 2026-05-04 02:58 | 40.76453 | -86.97844 | 37897 ft | 440 kts | 264° |
| 2026-05-04 02:59 | 40.75527 | -87.05826 | 37895 ft | 440 kts | 264° |
| 2026-05-04 02:59 | 40.74594 | -87.13812 | 37892 ft | 440 kts | 264° |
| 2026-05-04 03:00 | 40.73663 | -87.21733 | 37885 ft | 440 kts | 264° |
| 2026-05-04 03:00 | 40.72722 | -87.29678 | 37889 ft | 439 kts | 264° |
| 2026-05-04 03:01 | 40.71776 | -87.37638 | 37888 ft | 439 kts | 264° |
| 2026-05-04 03:01 | 40.70827 | -87.45580 | 37886 ft | 439 kts | 264° |
| 2026-05-04 03:02 | 40.69866 | -87.53569 | 37895 ft | 441 kts | 264° |
| 2026-05-04 03:02 | 40.68901 | -87.61541 | 37890 ft | 442 kts | 264° |
| 2026-05-04 03:03 | 40.67927 | -87.69536 | 37886 ft | 442 kts | 264° |
| 2026-05-04 03:03 | 40.66947 | -87.77534 | 37890 ft | 442 kts | 264° |
| 2026-05-04 03:04 | 40.65968 | -87.85490 | 37890 ft | 442 kts | 263° |
| 2026-05-04 03:04 | 40.64470 | -87.93368 | 37883 ft | 448 kts | 248° |
| 2026-05-04 03:04 | 40.62810 | -87.96868 | 37869 ft | 457 kts | 234° |
| 2026-05-04 03:05 | 40.60679 | -87.99987 | 37900 ft | 457 kts | 233° |
| 2026-05-04 03:05 | 40.56386 | -88.06164 | 37891 ft | 458 kts | 233° |
| 2026-05-04 03:06 | 40.52110 | -88.12387 | 37888 ft | 458 kts | 233° |
| 2026-05-04 03:06 | 40.47893 | -88.18583 | 37887 ft | 458 kts | 233° |
| 2026-05-04 03:07 | 40.43647 | -88.24835 | 37894 ft | 458 kts | 234° |
| 2026-05-04 03:07 | 40.39407 | -88.31070 | 37895 ft | 458 kts | 234° |
| 2026-05-04 03:08 | 40.35160 | -88.37299 | 37898 ft | 458 kts | 233° |
| 2026-05-04 03:08 | 40.30910 | -88.43516 | 37895 ft | 457 kts | 233° |
| 2026-05-04 03:09 | 40.26667 | -88.49711 | 37895 ft | 457 kts | 233° |
| 2026-05-04 03:09 | 40.22414 | -88.55909 | 37900 ft | 457 kts | 233° |
| 2026-05-04 03:10 | 40.18159 | -88.62096 | 37897 ft | 458 kts | 233° |
| 2026-05-04 03:10 | 40.13893 | -88.68288 | 37900 ft | 458 kts | 233° |
| 2026-05-04 03:11 | 40.09626 | -88.74469 | 37899 ft | 458 kts | 233° |
| 2026-05-04 03:11 | 40.05351 | -88.80648 | 37898 ft | 458 kts | 233° |
| 2026-05-04 03:12 | 40.01073 | -88.86819 | 37899 ft | 459 kts | 233° |
| 2026-05-04 03:12 | 39.96792 | -88.92981 | 37907 ft | 458 kts | 234° |
| 2026-05-04 03:13 | 39.92540 | -88.99087 | 37895 ft | 456 kts | 234° |
| 2026-05-04 03:13 | 39.88252 | -89.05236 | 37895 ft | 455 kts | 234° |
| 2026-05-04 03:14 | 39.84029 | -89.11277 | 37898 ft | 454 kts | 234° |
| 2026-05-04 03:14 | 39.79785 | -89.17339 | 37899 ft | 453 kts | 234° |
| 2026-05-04 03:15 | 39.75542 | -89.23390 | 37900 ft | 453 kts | 234° |
| 2026-05-04 03:15 | 39.71282 | -89.29451 | 37901 ft | 453 kts | 234° |
| 2026-05-04 03:16 | 39.67754 | -89.34459 | 37908 ft | 453 kts | 234° |
| 2026-05-04 03:16 | 39.63480 | -89.40518 | 37908 ft | 454 kts | 234° |
| 2026-05-04 03:17 | 39.59219 | -89.46547 | 37908 ft | 454 kts | 234° |
| 2026-05-04 03:17 | 39.54932 | -89.52599 | 37912 ft | 454 kts | 234° |
| 2026-05-04 03:18 | 39.50653 | -89.58628 | 37907 ft | 455 kts | 234° |
| 2026-05-04 03:18 | 39.46367 | -89.64654 | 37907 ft | 455 kts | 234° |
| 2026-05-04 03:19 | 39.42078 | -89.70675 | 37909 ft | 455 kts | 234° |
| 2026-05-04 03:19 | 39.37779 | -89.76698 | 37908 ft | 455 kts | 234° |
| 2026-05-04 03:20 | 39.33484 | -89.82702 | 37907 ft | 455 kts | 234° |
| 2026-05-04 03:20 | 39.29183 | -89.88705 | 37903 ft | 455 kts | 233° |
| 2026-05-04 03:21 | 39.24904 | -89.94664 | 37896 ft | 455 kts | 234° |
| 2026-05-04 03:21 | 39.20580 | -90.00674 | 37898 ft | 454 kts | 234° |
| 2026-05-04 03:22 | 39.16310 | -90.06597 | 37899 ft | 453 kts | 234° |
| 2026-05-04 03:22 | 39.11992 | -90.12574 | 37893 ft | 453 kts | 234° |
| 2026-05-04 03:23 | 39.07733 | -90.18463 | 37891 ft | 452 kts | 234° |
| 2026-05-04 03:23 | 39.03448 | -90.24374 | 37892 ft | 451 kts | 234° |
| 2026-05-04 03:24 | 38.99162 | -90.30275 | 37878 ft | 450 kts | 234° |
| 2026-05-04 03:24 | 38.94892 | -90.36145 | 37877 ft | 450 kts | 234° |
| 2026-05-04 03:25 | 38.90619 | -90.42008 | 37868 ft | 449 kts | 234° |
| 2026-05-04 03:25 | 38.86346 | -90.47859 | 37874 ft | 448 kts | 234° |
| 2026-05-04 03:26 | 38.82185 | -90.53803 | 37880 ft | 445 kts | 236° |
| 2026-05-04 03:26 | 38.78171 | -90.59766 | 37888 ft | 445 kts | 237° |
| 2026-05-04 03:27 | 38.74117 | -90.65773 | 37894 ft | 445 kts | 237° |
| 2026-05-04 03:27 | 38.70050 | -90.71751 | 37887 ft | 446 kts | 236° |
| 2026-05-04 03:28 | 38.65952 | -90.77743 | 37890 ft | 446 kts | 236° |
| 2026-05-04 03:28 | 38.61861 | -90.83710 | 37890 ft | 446 kts | 236° |
| 2026-05-04 03:29 | 38.57771 | -90.89663 | 37899 ft | 446 kts | 236° |
| 2026-05-04 03:29 | 38.53675 | -90.95614 | 37896 ft | 447 kts | 236° |
| 2026-05-04 03:30 | 38.49557 | -91.01587 | 37896 ft | 447 kts | 236° |
| 2026-05-04 03:30 | 38.45476 | -91.07495 | 37909 ft | 447 kts | 236° |
| 2026-05-04 03:31 | 38.41338 | -91.13476 | 37909 ft | 447 kts | 236° |
| 2026-05-04 03:31 | 38.37222 | -91.19414 | 37922 ft | 447 kts | 236° |
| 2026-05-04 03:32 | 38.33129 | -91.25305 | 37934 ft | 447 kts | 236° |
| 2026-05-04 03:32 | 38.29009 | -91.31226 | 37936 ft | 446 kts | 236° |
| 2026-05-04 03:33 | 38.24894 | -91.37128 | 37934 ft | 447 kts | 236° |
| 2026-05-04 03:33 | 38.20764 | -91.43041 | 37941 ft | 446 kts | 236° |
| 2026-05-04 03:34 | 38.16642 | -91.48931 | 37936 ft | 446 kts | 236° |
| 2026-05-04 03:34 | 38.12496 | -91.54847 | 37933 ft | 447 kts | 236° |
| 2026-05-04 03:35 | 38.08359 | -91.60738 | 37924 ft | 447 kts | 236° |
| 2026-05-04 03:35 | 38.04238 | -91.66594 | 37929 ft | 447 kts | 236° |
| 2026-05-04 03:36 | 38.00085 | -91.72485 | 37923 ft | 447 kts | 236° |
| 2026-05-04 03:36 | 37.95937 | -91.78360 | 37925 ft | 447 kts | 236° |
| 2026-05-04 03:37 | 37.91776 | -91.84239 | 37927 ft | 448 kts | 236° |
| 2026-05-04 03:37 | 37.87611 | -91.90115 | 37924 ft | 448 kts | 235° |
| 2026-05-04 03:38 | 37.83446 | -91.95981 | 37925 ft | 448 kts | 235° |
| 2026-05-04 03:38 | 37.79307 | -92.01801 | 37929 ft | 448 kts | 235° |
| 2026-05-04 03:39 | 37.75134 | -92.07656 | 37920 ft | 448 kts | 235° |
| 2026-05-04 03:39 | 37.70966 | -92.13493 | 37924 ft | 448 kts | 235° |
| 2026-05-04 03:40 | 37.66790 | -92.19331 | 37924 ft | 448 kts | 235° |
| 2026-05-04 03:40 | 37.62613 | -92.25160 | 37926 ft | 448 kts | 235° |
| 2026-05-04 03:41 | 37.58435 | -92.30978 | 37935 ft | 448 kts | 235° |
| 2026-05-04 03:41 | 37.54237 | -92.36816 | 37944 ft | 448 kts | 235° |
| 2026-05-04 03:42 | 37.50050 | -92.42628 | 37937 ft | 448 kts | 235° |
| 2026-05-04 03:42 | 37.45865 | -92.48425 | 37942 ft | 447 kts | 235° |
| 2026-05-04 03:43 | 37.41679 | -92.54212 | 37943 ft | 447 kts | 235° |
| 2026-05-04 03:43 | 37.37496 | -92.59988 | 37948 ft | 447 kts | 235° |
| 2026-05-04 03:44 | 37.33299 | -92.65771 | 37958 ft | 447 kts | 235° |
| 2026-05-04 03:44 | 37.29110 | -92.71535 | 37950 ft | 447 kts | 235° |
| 2026-05-04 03:45 | 37.24919 | -92.77290 | 37962 ft | 448 kts | 235° |
| 2026-05-04 03:45 | 37.20724 | -92.83039 | 37952 ft | 448 kts | 235° |
| 2026-05-04 03:46 | 37.16509 | -92.88806 | 37967 ft | 447 kts | 234° |
| 2026-05-04 03:46 | 37.12300 | -92.94553 | 37954 ft | 447 kts | 234° |
| 2026-05-04 03:47 | 37.08100 | -93.00282 | 37973 ft | 447 kts | 234° |
| 2026-05-04 03:47 | 37.03892 | -93.06009 | 37966 ft | 447 kts | 234° |
| 2026-05-04 03:48 | 36.99700 | -93.11705 | 37953 ft | 447 kts | 234° |
| 2026-05-04 03:48 | 36.95485 | -93.17422 | 37958 ft | 447 kts | 234° |
| 2026-05-04 03:49 | 36.91258 | -93.23143 | 37977 ft | 447 kts | 234° |
| 2026-05-04 03:49 | 36.87042 | -93.28842 | 37973 ft | 448 kts | 234° |
| 2026-05-04 03:50 | 36.82802 | -93.34564 | 37978 ft | 447 kts | 234° |
| 2026-05-04 03:50 | 36.78585 | -93.40241 | 37961 ft | 447 kts | 234° |
| 2026-05-04 03:51 | 36.74348 | -93.45939 | 37977 ft | 447 kts | 234° |
| 2026-05-04 03:51 | 36.70109 | -93.51628 | 37962 ft | 447 kts | 234° |
| 2026-05-04 03:52 | 36.65898 | -93.57268 | 37978 ft | 447 kts | 234° |
| 2026-05-04 03:52 | 36.61663 | -93.62933 | 37982 ft | 447 kts | 234° |
| 2026-05-04 03:53 | 36.57420 | -93.68597 | 37983 ft | 447 kts | 234° |
| 2026-05-04 03:53 | 36.53177 | -93.74253 | 37982 ft | 447 kts | 234° |
| 2026-05-04 03:54 | 36.48938 | -93.79893 | 37990 ft | 447 kts | 234° |
| 2026-05-04 03:54 | 36.44691 | -93.85535 | 37993 ft | 447 kts | 234° |
| 2026-05-04 03:55 | 36.40467 | -93.91137 | 38000 ft | 446 kts | 234° |
| 2026-05-04 03:55 | 36.36194 | -93.96794 | 38002 ft | 446 kts | 234° |
| 2026-05-04 03:56 | 36.31945 | -94.02413 | 38008 ft | 446 kts | 234° |
| 2026-05-04 03:56 | 36.27670 | -94.07988 | 38012 ft | 449 kts | 230° |
| 2026-05-04 03:56 | 36.25165 | -94.10301 | 38003 ft | 463 kts | 218° |
| 2026-05-04 03:57 | 36.22246 | -94.12092 | 38012 ft | 473 kts | 210° |
| 2026-05-04 03:57 | 36.19054 | -94.13294 | 37992 ft | 487 kts | 198° |
| 2026-05-04 03:57 | 36.15647 | -94.13952 | 38007 ft | 491 kts | 196° |
| 2026-05-04 03:58 | 36.05472 | -94.15543 | 38001 ft | 492 kts | 195° |
| 2026-05-04 03:58 | 35.98709 | -94.16675 | 38007 ft | 492 kts | 196° |
| 2026-05-04 03:59 | 35.91935 | -94.17870 | 38015 ft | 492 kts | 196° |
| 2026-05-04 03:59 | 35.85155 | -94.19073 | 38003 ft | 492 kts | 196° |
| 2026-05-04 04:00 | 35.78376 | -94.20269 | 38005 ft | 491 kts | 196° |
| 2026-05-04 04:00 | 35.71613 | -94.21458 | 38012 ft | 491 kts | 196° |
| 2026-05-04 04:01 | 35.64852 | -94.22646 | 38011 ft | 492 kts | 196° |
| 2026-05-04 04:01 | 35.58067 | -94.23835 | 38008 ft | 492 kts | 196° |
| 2026-05-04 04:02 | 35.52429 | -94.24822 | 38015 ft | 493 kts | 197° |
| 2026-05-04 04:02 | 35.45612 | -94.26012 | 38008 ft | 493 kts | 197° |
| 2026-05-04 04:03 | 35.39151 | -94.28157 | 38013 ft | 471 kts | 214° |
| 2026-05-04 04:03 | 35.33798 | -94.32418 | 38012 ft | 451 kts | 230° |
| 2026-05-04 04:04 | 35.29142 | -94.37567 | 38009 ft | 451 kts | 231° |
| 2026-05-04 04:04 | 35.24473 | -94.42717 | 38010 ft | 452 kts | 230° |
| 2026-05-04 04:05 | 35.19768 | -94.47837 | 38014 ft | 452 kts | 230° |
| 2026-05-04 04:05 | 35.15062 | -94.52921 | 38021 ft | 452 kts | 230° |
| 2026-05-04 04:06 | 35.10356 | -94.57992 | 38023 ft | 451 kts | 230° |
| 2026-05-04 04:06 | 35.05649 | -94.63059 | 38032 ft | 451 kts | 230° |
| 2026-05-04 04:07 | 35.00938 | -94.68123 | 38038 ft | 451 kts | 230° |
| 2026-05-04 04:07 | 34.96265 | -94.73141 | 38039 ft | 450 kts | 231° |
| 2026-05-04 04:08 | 34.91547 | -94.78200 | 38037 ft | 450 kts | 231° |
| 2026-05-04 04:08 | 34.86863 | -94.83214 | 38037 ft | 450 kts | 231° |
| 2026-05-04 04:09 | 34.82143 | -94.88258 | 38037 ft | 450 kts | 230° |
| 2026-05-04 04:09 | 34.77356 | -94.93210 | 38034 ft | 452 kts | 230° |
| 2026-05-04 04:10 | 34.72531 | -94.98103 | 38023 ft | 451 kts | 230° |
| 2026-05-04 04:10 | 34.67710 | -95.03003 | 38032 ft | 451 kts | 230° |
| 2026-05-04 04:11 | 34.62955 | -95.07849 | 38040 ft | 450 kts | 230° |
| 2026-05-04 04:11 | 34.58113 | -95.12779 | 38035 ft | 450 kts | 230° |
| 2026-05-04 04:12 | 34.53311 | -95.17659 | 38041 ft | 450 kts | 230° |
| 2026-05-04 04:12 | 34.48518 | -95.22524 | 38043 ft | 449 kts | 230° |
| 2026-05-04 04:13 | 34.43723 | -95.27372 | 38046 ft | 449 kts | 230° |
| 2026-05-04 04:13 | 34.38915 | -95.32212 | 38042 ft | 448 kts | 230° |
| 2026-05-04 04:14 | 34.36543 | -95.34590 | 37978 ft | 433 kts | 230° |
| 2026-05-04 04:14 | 34.34279 | -95.36839 | 37633 ft | 410 kts | 231° |
| 2026-05-04 04:14 | 34.32091 | -95.39033 | 37146 ft | 407 kts | 231° |
| 2026-05-04 04:14 | 34.29903 | -95.41257 | 36500 ft | 417 kts | 231° |
| 2026-05-04 04:15 | 34.27640 | -95.43557 | 35801 ft | 431 kts | 230° |
| 2026-05-04 04:15 | 34.25296 | -95.45923 | 34883 ft | 445 kts | 229° |
| 2026-05-04 04:15 | 34.22896 | -95.48324 | 33921 ft | 451 kts | 229° |
| 2026-05-04 04:15 | 34.20478 | -95.50732 | 33191 ft | 449 kts | 229° |
| 2026-05-04 04:16 | 34.18070 | -95.53128 | 32511 ft | 447 kts | 228° |
| 2026-05-04 04:16 | 34.15710 | -95.55480 | 31872 ft | 444 kts | 228° |
| 2026-05-04 04:16 | 34.13341 | -95.57844 | 31247 ft | 441 kts | 227° |
| 2026-05-04 04:16 | 34.10958 | -95.60223 | 30626 ft | 438 kts | 227° |
| 2026-05-04 04:17 | 34.08617 | -95.62556 | 30016 ft | 435 kts | 227° |
| 2026-05-04 04:17 | 34.06288 | -95.64871 | 29406 ft | 432 kts | 226° |
| 2026-05-04 04:17 | 34.03970 | -95.67172 | 28776 ft | 429 kts | 226° |
| 2026-05-04 04:17 | 34.01671 | -95.69455 | 28176 ft | 426 kts | 226° |
| 2026-05-04 04:18 | 33.99427 | -95.71682 | 27578 ft | 423 kts | 226° |
| 2026-05-04 04:18 | 33.97164 | -95.73924 | 27129 ft | 417 kts | 226° |
| 2026-05-04 04:18 | 33.94979 | -95.76087 | 26715 ft | 410 kts | 226° |
| 2026-05-04 04:18 | 33.92763 | -95.78305 | 26149 ft | 407 kts | 226° |
| 2026-05-04 04:19 | 33.90602 | -95.80475 | 25598 ft | 405 kts | 226° |
| 2026-05-04 04:19 | 33.88439 | -95.82646 | 25042 ft | 402 kts | 225° |
| 2026-05-04 04:19 | 33.86299 | -95.84789 | 24501 ft | 400 kts | 225° |
| 2026-05-04 04:19 | 33.84160 | -95.86925 | 23931 ft | 398 kts | 224° |
| 2026-05-04 04:20 | 33.82022 | -95.89053 | 23393 ft | 396 kts | 224° |
| 2026-05-04 04:20 | 33.79907 | -95.91143 | 22859 ft | 394 kts | 224° |
| 2026-05-04 04:20 | 33.77802 | -95.93218 | 22324 ft | 392 kts | 223° |
| 2026-05-04 04:20 | 33.75687 | -95.95299 | 21789 ft | 390 kts | 223° |
| 2026-05-04 04:21 | 33.73599 | -95.97355 | 21259 ft | 387 kts | 223° |
| 2026-05-04 04:21 | 33.71522 | -95.99400 | 20730 ft | 385 kts | 223° |
| 2026-05-04 04:21 | 33.69457 | -96.01433 | 20204 ft | 383 kts | 223° |
| 2026-05-04 04:21 | 33.67399 | -96.03459 | 19678 ft | 381 kts | 222° |
| 2026-05-04 04:22 | 33.65356 | -96.05469 | 19156 ft | 379 kts | 222° |
| 2026-05-04 04:22 | 33.63323 | -96.07467 | 18635 ft | 377 kts | 222° |
| 2026-05-04 04:22 | 33.61295 | -96.09461 | 18116 ft | 375 kts | 222° |
| 2026-05-04 04:22 | 33.59279 | -96.11441 | 17598 ft | 373 kts | 221° |
| 2026-05-04 04:23 | 33.57272 | -96.13411 | 17081 ft | 371 kts | 221° |
| 2026-05-04 04:23 | 33.55282 | -96.15363 | 16544 ft | 369 kts | 221° |
| 2026-05-04 04:23 | 33.53322 | -96.17285 | 16024 ft | 367 kts | 221° |
| 2026-05-04 04:23 | 33.51349 | -96.19217 | 15500 ft | 366 kts | 221° |
| 2026-05-04 04:24 | 33.49354 | -96.21171 | 14975 ft | 364 kts | 221° |
| 2026-05-04 04:24 | 33.47446 | -96.23037 | 14729 ft | 354 kts | 220° |
| 2026-05-04 04:24 | 33.45541 | -96.24899 | 14561 ft | 343 kts | 220° |
| 2026-05-04 04:24 | 33.43796 | -96.26729 | 14224 ft | 336 kts | 227° |
| 2026-05-04 04:25 | 33.42241 | -96.28808 | 13804 ft | 333 kts | 231° |
| 2026-05-04 04:25 | 33.40771 | -96.30937 | 13376 ft | 331 kts | 231° |
| 2026-05-04 04:25 | 33.39288 | -96.33081 | 12948 ft | 330 kts | 231° |
| 2026-05-04 04:25 | 33.37826 | -96.35150 | 12516 ft | 328 kts | 230° |
| 2026-05-04 04:26 | 33.36326 | -96.37234 | 12087 ft | 326 kts | 230° |
| 2026-05-04 04:26 | 33.34861 | -96.39251 | 11926 ft | 316 kts | 229° |
| 2026-05-04 04:26 | 33.33451 | -96.41189 | 11775 ft | 306 kts | 230° |
| 2026-05-04 04:26 | 33.32301 | -96.43264 | 11476 ft | 298 kts | 248° |
| 2026-05-04 04:27 | 33.31665 | -96.45601 | 11145 ft | 295 kts | 252° |
| 2026-05-04 04:27 | 33.31049 | -96.47939 | 10774 ft | 294 kts | 251° |
| 2026-05-04 04:27 | 33.30414 | -96.50257 | 10407 ft | 293 kts | 251° |
| 2026-05-04 04:27 | 33.29771 | -96.52561 | 10173 ft | 287 kts | 251° |
| 2026-05-04 04:28 | 33.29164 | -96.54729 | 9917 ft | 268 kts | 251° |
| 2026-05-04 04:28 | 33.28639 | -96.56867 | 9454 ft | 265 kts | 259° |
| 2026-05-04 04:28 | 33.28466 | -96.59019 | 9165 ft | 256 kts | 265° |
| 2026-05-04 04:28 | 33.28398 | -96.61091 | 8886 ft | 244 kts | 266° |
| 2026-05-04 04:29 | 33.28339 | -96.63072 | 8632 ft | 240 kts | 266° |
| 2026-05-04 04:29 | 33.28270 | -96.65082 | 8408 ft | 245 kts | 265° |
| 2026-05-04 04:29 | 33.28192 | -96.67154 | 8175 ft | 247 kts | 265° |
| 2026-05-04 04:29 | 33.28111 | -96.69166 | 7927 ft | 245 kts | 265° |
| 2026-05-04 04:30 | 33.28026 | -96.71198 | 7670 ft | 242 kts | 265° |
| 2026-05-04 04:30 | 33.27936 | -96.73216 | 7413 ft | 240 kts | 265° |
| 2026-05-04 04:30 | 33.27845 | -96.75202 | 7151 ft | 237 kts | 264° |
| 2026-05-04 04:30 | 33.27753 | -96.77162 | 6904 ft | 235 kts | 264° |
| 2026-05-04 04:31 | 33.27661 | -96.79101 | 6652 ft | 233 kts | 264° |
| 2026-05-04 04:31 | 33.27571 | -96.81027 | 6397 ft | 231 kts | 264° |
| 2026-05-04 04:31 | 33.27483 | -96.82910 | 6151 ft | 228 kts | 264° |
| 2026-05-04 04:31 | 33.27383 | -96.84763 | 6076 ft | 220 kts | 262° |
| 2026-05-04 04:32 | 33.27250 | -96.86603 | 6035 ft | 223 kts | 262° |
| 2026-05-04 04:32 | 33.27109 | -96.88433 | 6018 ft | 221 kts | 262° |
| 2026-05-04 04:32 | 33.26966 | -96.90250 | 6011 ft | 218 kts | 262° |
| 2026-05-04 04:32 | 33.26821 | -96.92057 | 6015 ft | 218 kts | 261° |
| 2026-05-04 04:33 | 33.26678 | -96.93860 | 6018 ft | 218 kts | 261° |
| 2026-05-04 04:33 | 33.26438 | -96.95628 | 6003 ft | 213 kts | 246° |
| 2026-05-04 04:33 | 33.25742 | -96.97169 | 6023 ft | 211 kts | 236° |
| 2026-05-04 04:33 | 33.24928 | -96.98648 | 6028 ft | 213 kts | 235° |
| 2026-05-04 04:34 | 33.24102 | -97.00104 | 6026 ft | 216 kts | 233° |
| 2026-05-04 04:34 | 33.23091 | -97.01455 | 6026 ft | 217 kts | 223° |
| 2026-05-04 04:34 | 33.21922 | -97.02560 | 5996 ft | 215 kts | 205° |
| 2026-05-04 04:34 | 33.20466 | -97.02819 | 6021 ft | 216 kts | 176° |
| 2026-05-04 04:35 | 33.18975 | -97.02609 | 6033 ft | 217 kts | 178° |
| 2026-05-04 04:35 | 33.17443 | -97.02505 | 6024 ft | 222 kts | 181° |
| 2026-05-04 04:35 | 33.15889 | -97.02475 | 6020 ft | 219 kts | 182° |
| 2026-05-04 04:35 | 33.14403 | -97.02475 | 6081 ft | 215 kts | 183° |
| 2026-05-04 04:36 | 33.12906 | -97.02476 | 5964 ft | 216 kts | 182° |
| 2026-05-04 04:36 | 33.11403 | -97.02450 | 5631 ft | 214 kts | 181° |
| 2026-05-04 04:36 | 33.09909 | -97.02431 | 5163 ft | 215 kts | 183° |
| 2026-05-04 04:36 | 33.08408 | -97.02429 | 4664 ft | 217 kts | 182° |
| 2026-05-04 04:37 | 33.04115 | -97.02426 | 3175 ft | 191 kts | 183° |
| 2026-05-04 04:37 | 33.02841 | -97.02464 | 2957 ft | 175 kts | 184° |
| 2026-05-04 04:38 | 33.01657 | -97.02503 | 2848 ft | 164 kts | 182° |
| 2026-05-04 04:38 | 33.00546 | -97.02523 | 2633 ft | 157 kts | 181° |
| 2026-05-04 04:38 | 32.99474 | -97.02510 | 2464 ft | 150 kts | 181° |
| 2026-05-04 04:38 | 32.98445 | -97.02525 | 2239 ft | 147 kts | 182° |
| 2026-05-04 04:39 | 32.97425 | -97.02551 | 1962 ft | 146 kts | 181° |
| 2026-05-04 04:39 | 32.96420 | -97.02562 | 1718 ft | 144 kts | 180° |
| 2026-05-04 04:39 | 32.95211 | -97.02560 | 1457 ft | 144 kts | 180° |
| 2026-05-04 04:40 | 32.94224 | -97.02586 | 1228 ft | 143 kts | 181° |
| 2026-05-04 04:40 | 32.93233 | -97.02577 | 991 ft | 142 kts | 180° |
| 2026-05-04 04:40 | 32.92274 | -97.02595 | 724 ft | 137 kts | 180° |
| 2026-05-04 04:40 | 32.91367 | -97.02601 | 596 ft | 123 kts | 180° |
| 2026-05-04 04:41 | 32.90597 | -97.02605 | 583 ft | 92 kts | 180° |
| 2026-05-04 04:41 | 32.90111 | -97.02608 | 580 ft | 48 kts | 182° |
| 2026-05-04 04:41 | 32.89807 | -97.02608 | 576 ft | 39 kts | 184° |
| 2026-05-04 04:41 | 32.89595 | -97.02665 | 577 ft | 22 kts | 204° |
| 2026-05-04 04:42 | 32.89501 | -97.02729 | 577 ft | 5 kts | 209° |
| 2026-05-04 04:42 | 32.89499 | -97.02730 | 577 ft | 0 kts | 209° |
| 2026-05-04 04:42 | 32.89498 | -97.02731 | 577 ft | 3 kts | 209° |
| 2026-05-04 04:43 | 32.89475 | -97.02746 | 578 ft | 0 kts | 210° |
| 2026-05-04 04:43 | 32.89468 | -97.02752 | 578 ft | 9 kts | 210° |
| 2026-05-04 04:43 | 32.89387 | -97.02796 | 582 ft | 13 kts | 195° |
| 2026-05-04 04:43 | 32.89296 | -97.02805 | 586 ft | 13 kts | 181° |
| 2026-05-04 04:44 | 32.89202 | -97.02805 | 583 ft | 13 kts | 180° |
| 2026-05-04 04:44 | 32.89109 | -97.02805 | 584 ft | 14 kts | 181° |
| 2026-05-04 04:44 | 32.89042 | -97.02871 | 583 ft | 14 kts | 255° |
| 2026-05-04 04:44 | 32.89036 | -97.02989 | 583 ft | 15 kts | 269° |
| 2026-05-04 04:45 | 32.89035 | -97.03113 | 583 ft | 15 kts | 272° |
| 2026-05-04 04:45 | 32.89037 | -97.03222 | 596 ft | 11 kts | 270° |
| 2026-05-04 04:45 | 32.89044 | -97.03282 | 600 ft | 11 kts | 296° |
| 2026-05-04 04:47 | 32.89036 | -97.03495 | 602 ft | 0 kts | 269° |